OLBA/BEY METAR and TAF weather

Enter ICAO airport designator
Station Type Date Time Source
OLBA METAR 2022/12/10 02:00 UTC NOAA

OLBA 100200Z 11007KT 8000 NSC 15/09 Q1021 NOSIG


Station Type Date Time Source
OLBA Decoded METAR 2022/12/10 02:00 UTC NOAA

Beyrouth Aeroport , Lebanon (OLBA) 33-49N 035-29E 19M
Dec 09, 2022 - 09:00 PM EST / 2022.12.10 0200 UTC
Wind: from the ESE (110 degrees) at 8 MPH (7 KT):0
Visibility: 4 mile(s):0
Temperature: 59 F (15 C)
Dew Point: 48 F (9 C)
Relative Humidity: 67%
Pressure (altimeter): 30.15 in. Hg (1021 hPa)
ob: OLBA 100200Z 11007KT 8000 NSC 15/09 Q1021 NOSIG
cycle: 2

Station Type Date Time Source
OLBA TAF 2022/12/09 18:06 UTC NOAA

TAF TAF OLBA 091600Z 0918/1024 VRB03KT CAVOK
BECMG 1006/1009 36008KT 8000 NSC
BECMG 1020/1022 14003KT

Example: see airport list